New Munich, Minnesota
Current Conditions -  °F | °C
As of 12:32 PM on Wednesday 26 Nov 2014 (Local Time) from KD39 Reporting Station
Broken Clouds Broken Clouds  
Wind Chill: 10°   Ceiling: 1300
Heat Index: 19°   Visibility: 10mi
Dew Point: 13°   Wind: 7mph
Humidity: 77%   Direction: 350°N
Pressure: 30.22"   Gusts: NA
Location:  45.63°N, 94.75°W
Report Text: KD39 261832Z AUTO 35006KT 10SM BKN013 M07/M11 A3022 RMK AO2 T10721106
Loading
Personal Weather Stations






























Interactive Weather Map New forecast layout! Learn more

10-Day Weather Forecast

Advertisements
Track Severe Weather on mobile